Rockwell, NC (28138)

11:09 PM EDT on July 27, 2015 (GMT -0400)
RockGrove | | Change Station
CLOSE
Current Station
Personal Weather Station
Location: Salisbury, NC
Elevation: 856 ft
Nearby Weather Stations

Elev 856 ft 35.55 °N, 80.48 °W | Updated 13 minutes ago

Mostly Cloudy
Mostly Cloudy
73.1 °F
Feels Like 73.1 °F
N
2.0
Wind Variable Wind from SE
Gusts 9.0 mph

Today
High -- | Low -- °F
--% Chance of Precip.
Yesterday
High -- | Low -- °F
Precip. -- in
6:26 AM 8:30 PM
Waxing Gibbous, 86% visible
Pressure 30.02 in
Visibility 10.0 miles
Clouds Mostly Cloudy 7000 ft
Mostly Cloudy 12000 ft
Dew Point 71 °F
Humidity 94%
Rainfall 0.07 in
Snow Depth Not available.
UV 0 out of 12
Pollen 3.80 out of 12
Air Quality Not available.
Flu Activity Not available.
METAR KRUQ 280255Z AUTO 09006KT 10SM BKN070 BKN120 23/23 A3002 RMK AO2 T02270227

More Conditions Fewer Conditions

Pressure 30.02 in
Visibility 10.0 miles
Clouds Mostly Cloudy 7000 ft
Mostly Cloudy 12000 ft
Dew Point 71 °F
Humidity 94%
Rainfall 0.07 in
Snow Depth Not available.
UV 0 out of 12
Pollen 3.80 out of 12
Air Quality Not available.
Flu Activity Not available.
METAR KRUQ 280255Z AUTO 09006KT 10SM BKN070 BKN120 23/23 A3002 RMK AO2 T02270227

More Conditions Fewer Conditions

10-Day Weather Forecast

×

Almanac

Astronomy

Jul. 27, 2015 Rise Set
Actual Time
Civil Twilight
Nautical Twilight
Astronomical Twilight
Moon
Length of Visible Light
Length of Day
Tomorrow will be .
, % of the Moon is Illuminated

Today's Extremes

State Highs State Lows

Community

WunderPhotos

Upload Photos

1,841,780 photos uploaded!

WunderBlogs® & News

Nearby

Air Quality

  Air Quality AQ Index Pollutant
Not available.

Snow Depth

Station Depth Elevation

Earthquake Activity

City Distance Mag. Time & Date
Minimum magnitude displayed is 2.5.

Coastal Water Temperatures

Place Temperature

Stations

Nearby Weather Stations

Station Location Temp. Windchill Dew Point Humidity Wind Precip. Elev Updated Type